createdAt,value
2022-12-25T00:00:31.674Z,10.00
2022-12-25T00:03:17.394Z,10.40
2022-12-25T00:06:03.635Z,9.90
2022-12-25T00:08:49.136Z,9.90
2022-12-25T00:11:34.762Z,9.90
2022-12-25T00:14:21.702Z,9.90
2022-12-25T00:17:07.392Z,9.90
2022-12-25T00:19:52.986Z,9.80
2022-12-25T00:22:38.535Z,9.80
2022-12-25T00:25:26.383Z,9.80
2022-12-25T00:28:11.980Z,9.80
2022-12-25T00:30:57.549Z,9.90
2022-12-25T00:33:45.054Z,9.90
2022-12-25T00:36:34.845Z,9.90
2022-12-25T00:39:23.791Z,9.90
2022-12-25T00:42:19.374Z,9.80
2022-12-25T00:45:07.266Z,9.80
2022-12-25T00:47:53.437Z,9.80
2022-12-25T00:50:39.262Z,9.80
2022-12-25T00:53:26.732Z,9.80
2022-12-25T00:56:12.194Z,9.80
2022-12-25T00:58:58.016Z,9.80
2022-12-25T01:01:43.822Z,9.80
2022-12-25T01:04:29.612Z,9.80
2022-12-25T01:07:16.983Z,9.80
2022-12-25T01:10:21.193Z,9.70
2022-12-25T01:13:06.731Z,9.70
2022-12-25T01:15:52.711Z,9.70
2022-12-25T01:18:39.012Z,9.70
2022-12-25T01:21:24.522Z,9.70
2022-12-25T01:24:10.378Z,9.60
2022-12-25T01:26:56.025Z,9.70
2022-12-25T01:29:41.520Z,9.70
2022-12-25T01:32:27.127Z,9.70
2022-12-25T01:35:12.626Z,9.70
2022-12-25T01:37:58.319Z,9.70
2022-12-25T01:40:43.900Z,9.70
2022-12-25T01:43:32.587Z,9.70
2022-12-25T01:46:18.590Z,9.80
2022-12-25T01:49:09.658Z,9.70
2022-12-25T01:52:10.722Z,9.70
2022-12-25T01:55:00.165Z,9.70
2022-12-25T01:57:46.253Z,9.70
2022-12-25T02:00:32.056Z,9.70
2022-12-25T02:03:18.933Z,9.70
2022-12-25T02:06:05.526Z,9.70
2022-12-25T02:08:51.494Z,9.70
2022-12-25T02:11:55.620Z,9.70
2022-12-25T02:14:41.315Z,9.70
2022-12-25T02:17:51.151Z,9.70
2022-12-25T02:20:47.113Z,9.70
2022-12-25T02:23:54.409Z,9.70
2022-12-25T02:26:59.870Z,9.70
2022-12-25T02:29:53.891Z,9.70
2022-12-25T02:33:32.883Z,9.80
2022-12-25T02:36:24.975Z,9.80
2022-12-25T02:39:58.994Z,9.70
2022-12-25T02:43:14.983Z,9.70
2022-12-25T02:46:26.822Z,9.70
2022-12-25T02:49:37.930Z,9.70
2022-12-25T02:52:45.037Z,9.70
2022-12-25T02:55:55.062Z,9.60
2022-12-25T02:59:01.330Z,9.60
2022-12-25T03:02:05.620Z,9.60
2022-12-25T03:05:11.825Z,9.60
2022-12-25T03:08:00.406Z,9.60
2022-12-25T03:11:10.784Z,9.60
2022-12-25T03:14:20.671Z,9.70
2022-12-25T03:17:06.228Z,9.70
2022-12-25T03:20:10.499Z,9.70
2022-12-25T03:23:15.459Z,9.70
2022-12-25T03:26:19.617Z,9.70
2022-12-25T03:29:05.338Z,9.70
2022-12-25T03:31:58.584Z,9.60
2022-12-25T03:35:13.006Z,9.70
2022-12-25T03:38:49.248Z,9.70
2022-12-25T03:42:05.089Z,9.80
2022-12-25T03:45:21.609Z,9.80
2022-12-25T03:48:13.097Z,9.80
2022-12-25T03:51:26.593Z,9.70
2022-12-25T03:54:32.910Z,9.70
2022-12-25T03:57:36.788Z,9.70
2022-12-25T04:00:41.127Z,9.70
2022-12-25T04:03:45.366Z,9.70
2022-12-25T04:06:49.820Z,9.70
2022-12-25T04:09:54.014Z,9.80
2022-12-25T04:12:58.202Z,9.90
2022-12-25T04:16:02.491Z,9.90
2022-12-25T04:19:06.506Z,9.90
2022-12-25T04:22:10.644Z,9.90
2022-12-25T04:25:14.682Z,9.90
2022-12-25T04:28:39.681Z,9.90
2022-12-25T04:31:44.481Z,9.90
2022-12-25T04:34:48.533Z,9.90
2022-12-25T04:37:34.148Z,9.90
2022-12-25T04:40:19.696Z,9.90
2022-12-25T04:43:05.313Z,9.90
2022-12-25T04:45:55.287Z,9.90
2022-12-25T04:48:40.921Z,9.90
2022-12-25T04:51:27.228Z,9.90
2022-12-25T04:54:12.895Z,9.90
2022-12-25T04:56:58.511Z,9.90
2022-12-25T04:59:45.496Z,9.90
2022-12-25T05:02:31.530Z,9.90
2022-12-25T05:05:17.134Z,9.90
2022-12-25T05:08:05.746Z,9.90
2022-12-25T05:10:51.729Z,9.90
2022-12-25T05:13:37.988Z,9.90
2022-12-25T05:16:23.950Z,9.90
2022-12-25T05:19:09.897Z,9.90
2022-12-25T05:21:55.817Z,9.90
2022-12-25T05:24:42.567Z,9.90
2022-12-25T05:27:28.227Z,9.90
2022-12-25T05:30:14.181Z,9.90
2022-12-25T05:32:59.483Z,9.90
2022-12-25T05:35:45.232Z,9.90
2022-12-25T05:38:30.980Z,9.90
2022-12-25T05:41:16.659Z,9.90
2022-12-25T05:44:02.788Z,9.80
2022-12-25T05:46:48.275Z,9.80
2022-12-25T05:49:33.953Z,9.80
2022-12-25T05:52:19.541Z,9.80
2022-12-25T05:55:05.671Z,9.90
2022-12-25T05:57:51.187Z,9.80
2022-12-25T06:00:37.287Z,9.80
2022-12-25T06:03:23.880Z,9.90
2022-12-25T06:06:11.114Z,9.90
2022-12-25T06:08:56.755Z,9.90
2022-12-25T06:11:42.705Z,9.90
2022-12-25T06:14:28.145Z,9.90
2022-12-25T06:17:13.783Z,9.80
2022-12-25T06:19:59.567Z,9.80
2022-12-25T06:22:45.314Z,9.80
2022-12-25T06:25:31.486Z,9.80
2022-12-25T06:28:16.977Z,9.80
2022-12-25T06:31:17.166Z,9.80
2022-12-25T06:34:03.266Z,9.80
2022-12-25T06:36:48.651Z,9.80
2022-12-25T06:39:34.426Z,9.80
2022-12-25T06:42:20.095Z,9.80
2022-12-25T06:45:06.111Z,9.90
2022-12-25T06:47:51.842Z,9.80
2022-12-25T06:50:43.200Z,9.80
2022-12-25T06:53:31.176Z,9.80
2022-12-25T06:56:24.299Z,9.80
2022-12-25T06:59:10.492Z,9.80
2022-12-25T07:01:57.683Z,9.80
2022-12-25T07:04:43.832Z,9.80
2022-12-25T07:07:29.415Z,9.80
2022-12-25T07:10:15.301Z,9.90
2022-12-25T07:13:00.653Z,9.90
2022-12-25T07:15:46.412Z,9.80
2022-12-25T07:18:32.273Z,9.90
2022-12-25T07:21:20.004Z,9.90
2022-12-25T07:24:05.962Z,9.90
2022-12-25T07:26:51.922Z,9.90
2022-12-25T07:29:37.573Z,9.90
2022-12-25T07:32:23.457Z,9.90
2022-12-25T07:35:09.379Z,9.90
2022-12-25T07:37:54.876Z,9.90
2022-12-25T07:40:40.542Z,9.90
2022-12-25T07:43:26.241Z,9.90
2022-12-25T07:46:11.761Z,9.90
2022-12-25T07:48:57.385Z,9.90
2022-12-25T07:51:43.072Z,9.90
2022-12-25T07:54:28.930Z,10.00
2022-12-25T07:57:14.507Z,10.00
2022-12-25T08:00:00.309Z,10.00
2022-12-25T08:02:48.860Z,10.00
2022-12-25T08:05:34.554Z,10.00
2022-12-25T08:08:20.241Z,10.00
2022-12-25T08:11:08.332Z,10.00
2022-12-25T08:13:53.881Z,10.00
2022-12-25T08:16:41.599Z,10.00
2022-12-25T08:19:27.172Z,10.10
2022-12-25T08:22:12.572Z,10.10
2022-12-25T08:24:58.363Z,10.10
2022-12-25T08:27:43.906Z,10.10
2022-12-25T08:30:29.633Z,10.10
2022-12-25T08:33:15.287Z,10.10
2022-12-25T08:36:06.514Z,10.10
2022-12-25T08:38:55.704Z,10.20
2022-12-25T08:41:46.283Z,10.10
2022-12-25T08:44:32.048Z,10.20
2022-12-25T08:47:17.763Z,10.20
2022-12-25T08:50:03.413Z,10.20
2022-12-25T08:52:49.577Z,10.20
2022-12-25T08:55:35.209Z,10.20
2022-12-25T08:58:20.883Z,10.20
2022-12-25T09:01:07.722Z,10.20
2022-12-25T09:03:53.590Z,10.20
2022-12-25T09:06:39.240Z,10.20
2022-12-25T09:09:28.542Z,10.20
2022-12-25T09:12:14.196Z,10.20
2022-12-25T09:14:59.881Z,10.20
2022-12-25T09:17:45.543Z,10.30
2022-12-25T09:20:31.388Z,10.30
2022-12-25T09:23:17.258Z,10.30
2022-12-25T09:26:04.629Z,10.30
2022-12-25T09:28:52.413Z,10.30
2022-12-25T09:31:38.716Z,10.30
2022-12-25T09:34:24.331Z,10.40
2022-12-25T09:37:10.792Z,10.40
2022-12-25T09:39:56.578Z,10.40
2022-12-25T09:42:42.889Z,10.50
2022-12-25T09:45:35.153Z,10.50
2022-12-25T09:48:21.004Z,10.50
2022-12-25T09:51:11.476Z,10.50
2022-12-25T09:54:35.027Z,10.60
2022-12-25T09:57:20.799Z,10.60
2022-12-25T10:00:18.228Z,10.60
2022-12-25T10:03:18.730Z,10.70
2022-12-25T10:06:25.171Z,10.70
2022-12-25T10:09:34.328Z,10.70
2022-12-25T10:12:36.196Z,10.80
2022-12-25T10:16:20.760Z,10.80
2022-12-25T10:19:34.678Z,10.80
2022-12-25T10:22:35.272Z,10.80
2022-12-25T10:25:26.474Z,10.90
2022-12-25T10:28:28.502Z,10.90
2022-12-25T10:31:21.661Z,11.00
2022-12-25T10:34:10.992Z,11.00
2022-12-25T10:36:56.755Z,11.00
2022-12-25T10:39:46.651Z,11.10
2022-12-25T10:42:46.309Z,11.10
2022-12-25T10:45:48.475Z,11.20
2022-12-25T10:48:34.241Z,11.10
2022-12-25T10:51:29.165Z,11.10
2022-12-25T10:58:35.148Z,11.10
2022-12-25T11:01:20.954Z,11.10
2022-12-25T11:04:06.785Z,11.20
2022-12-25T11:07:07.654Z,11.10
2022-12-25T11:10:05.546Z,11.10
2022-12-25T11:12:53.502Z,11.00
2022-12-25T11:15:45.017Z,11.00
2022-12-25T11:18:43.673Z,10.90
2022-12-25T11:21:36.812Z,10.90
2022-12-25T11:24:26.171Z,11.00
2022-12-25T11:27:29.670Z,11.00
2022-12-25T11:34:41.785Z,11.10
2022-12-25T11:37:45.456Z,11.20
2022-12-25T11:40:42.339Z,11.10
2022-12-25T11:43:35.843Z,11.10
2022-12-25T11:46:39.066Z,11.20
2022-12-25T11:49:25.128Z,11.10
2022-12-25T11:52:13.636Z,11.10
2022-12-25T11:55:16.334Z,11.00
2022-12-25T11:58:08.948Z,11.10
2022-12-25T12:00:57.298Z,11.10
2022-12-25T12:03:43.732Z,11.10
2022-12-25T12:06:54.543Z,11.10
2022-12-25T12:10:10.460Z,11.10
2022-12-25T12:13:22.584Z,11.10
2022-12-25T12:16:09.908Z,11.10
2022-12-25T12:18:55.721Z,11.10
2022-12-25T12:21:44.213Z,11.10
2022-12-25T12:24:36.815Z,11.10
2022-12-25T12:27:33.701Z,11.10
2022-12-25T12:30:32.400Z,11.10
2022-12-25T12:33:20.640Z,11.10
2022-12-25T12:36:09.807Z,11.10
2022-12-25T12:38:58.330Z,11.10
2022-12-25T12:41:48.814Z,11.10
2022-12-25T12:44:34.785Z,11.10
2022-12-25T12:47:37.104Z,11.10
2022-12-25T12:50:34.241Z,11.10
2022-12-25T12:53:23.493Z,11.10
2022-12-25T12:56:20.823Z,11.10
2022-12-25T12:59:09.882Z,11.10
2022-12-25T13:02:13.602Z,11.00
2022-12-25T13:05:37.161Z,11.00
2022-12-25T13:08:44.163Z,11.10
2022-12-25T13:11:33.768Z,11.10
2022-12-25T13:14:22.187Z,11.10
2022-12-25T13:17:08.977Z,11.10
2022-12-25T13:20:01.026Z,11.10
2022-12-25T13:22:52.417Z,11.10
2022-12-25T13:25:38.997Z,11.10
2022-12-25T13:28:32.781Z,11.10
2022-12-25T13:31:21.267Z,11.10
2022-12-25T13:34:34.796Z,11.10
2022-12-25T13:37:24.250Z,11.10
2022-12-25T13:40:21.279Z,11.10
2022-12-25T13:43:10.470Z,11.10
2022-12-25T13:45:56.630Z,11.10
2022-12-25T13:48:42.928Z,11.20
2022-12-25T13:51:28.621Z,11.20
2022-12-25T13:54:16.212Z,11.10
2022-12-25T13:57:14.911Z,11.10
2022-12-25T14:00:01.376Z,11.10
2022-12-25T14:02:48.332Z,11.20
2022-12-25T14:05:42.155Z,11.20
2022-12-25T14:08:34.149Z,11.20
2022-12-25T14:11:22.641Z,11.20
2022-12-25T14:14:19.939Z,11.20
2022-12-25T14:17:05.744Z,11.20
2022-12-25T14:20:05.746Z,11.20
2022-12-25T14:22:57.272Z,11.10
2022-12-25T14:25:47.884Z,11.20
2022-12-25T14:28:34.513Z,11.20
2022-12-25T14:31:21.675Z,11.20
2022-12-25T14:34:22.598Z,11.20
2022-12-25T14:37:20.243Z,11.10
2022-12-25T14:40:25.497Z,11.10
2022-12-25T14:43:26.726Z,11.10
2022-12-25T14:46:24.231Z,11.10
2022-12-25T14:49:24.827Z,11.10
2022-12-25T14:52:17.453Z,11.10
2022-12-25T14:55:16.868Z,11.00
2022-12-25T14:58:05.928Z,11.00
2022-12-25T15:00:58.653Z,11.00
2022-12-25T15:03:44.386Z,11.00
2022-12-25T15:06:31.234Z,11.00
2022-12-25T15:09:19.107Z,11.00
2022-12-25T15:12:05.326Z,11.00
2022-12-25T15:14:51.148Z,11.00
2022-12-25T15:17:38.231Z,11.00
2022-12-25T15:20:30.539Z,11.00
2022-12-25T15:23:20.233Z,11.00
2022-12-25T15:26:06.607Z,11.00
2022-12-25T15:28:52.496Z,11.00
2022-12-25T15:31:39.770Z,11.00
2022-12-25T15:34:25.643Z,11.00
2022-12-25T15:37:11.148Z,11.00
2022-12-25T15:39:57.438Z,11.00
2022-12-25T15:42:45.196Z,10.90
2022-12-25T15:45:31.182Z,10.90
2022-12-25T15:48:16.581Z,10.90
2022-12-25T15:51:03.145Z,11.00
2022-12-25T15:53:49.273Z,10.90
2022-12-25T15:56:44.996Z,10.90
2022-12-25T15:59:31.142Z,10.90
2022-12-25T16:02:19.780Z,10.90
2022-12-25T16:05:10.264Z,10.90
2022-12-25T16:07:56.648Z,10.90
2022-12-25T16:10:42.283Z,10.90
2022-12-25T16:13:28.050Z,10.90
2022-12-25T16:16:13.500Z,10.90
2022-12-25T16:18:59.112Z,10.90
2022-12-25T16:21:46.592Z,10.90
2022-12-25T16:24:32.124Z,10.90
2022-12-25T16:27:18.082Z,10.90
2022-12-25T16:30:04.462Z,10.90
2022-12-25T16:32:50.406Z,10.90
2022-12-25T16:35:36.411Z,10.90
2022-12-25T16:38:22.323Z,10.90
2022-12-25T16:41:12.275Z,10.90
2022-12-25T16:43:57.912Z,10.80
2022-12-25T16:46:43.889Z,10.90
2022-12-25T16:49:29.768Z,10.80
2022-12-25T16:52:15.326Z,10.80
2022-12-25T16:55:01.960Z,10.80
2022-12-25T16:57:51.120Z,10.80
2022-12-25T17:00:36.898Z,10.80
2022-12-25T17:03:22.733Z,10.80
2022-12-25T17:06:20.521Z,10.80
2022-12-25T17:09:06.131Z,10.80
2022-12-25T17:11:51.781Z,10.80
2022-12-25T17:14:37.616Z,10.80
2022-12-25T17:17:23.289Z,10.80
2022-12-25T17:20:09.487Z,10.80
2022-12-25T17:22:54.947Z,10.80
2022-12-25T17:25:40.821Z,10.80
2022-12-25T17:28:26.744Z,10.70
2022-12-25T17:31:14.101Z,10.70
2022-12-25T17:34:01.517Z,10.70
2022-12-25T17:36:47.786Z,10.70
2022-12-25T17:39:33.603Z,10.70
2022-12-25T17:42:19.119Z,10.70
2022-12-25T17:45:05.430Z,10.70
2022-12-25T17:47:54.974Z,10.70
2022-12-25T17:50:41.601Z,10.70
2022-12-25T17:53:28.036Z,10.70
2022-12-25T17:56:15.213Z,10.70
2022-12-25T17:59:06.570Z,10.70
2022-12-25T18:01:52.365Z,10.80
2022-12-25T18:04:38.256Z,10.70
2022-12-25T18:07:23.965Z,10.70
2022-12-25T18:10:10.751Z,10.70
2022-12-25T18:12:56.524Z,10.70
2022-12-25T18:15:42.045Z,10.70
2022-12-25T18:18:27.706Z,10.70
2022-12-25T18:21:13.522Z,10.70
2022-12-25T18:23:59.214Z,10.70
2022-12-25T18:26:45.897Z,10.70
2022-12-25T18:29:31.246Z,10.70
2022-12-25T18:32:17.024Z,10.70
2022-12-25T18:35:03.011Z,10.70
2022-12-25T18:37:48.864Z,10.70
2022-12-25T18:40:43.519Z,10.70
2022-12-25T18:46:28.586Z,10.70
2022-12-25T18:49:14.532Z,10.70
2022-12-25T18:52:49.870Z,10.70
2022-12-25T18:55:08.104Z,10.70
2022-12-25T18:57:53.534Z,10.70
2022-12-25T19:00:39.273Z,10.70
2022-12-25T19:03:26.581Z,10.70
2022-12-25T19:06:27.028Z,10.60
2022-12-25T19:09:12.775Z,10.60
2022-12-25T19:11:58.601Z,10.70
2022-12-25T19:14:47.875Z,10.60
2022-12-25T19:17:34.564Z,10.70
2022-12-25T19:20:20.743Z,10.60
2022-12-25T19:23:06.730Z,10.60
2022-12-25T19:25:52.683Z,10.70
2022-12-25T19:28:39.406Z,10.70
2022-12-25T19:31:25.257Z,10.70
2022-12-25T19:34:11.675Z,10.70
2022-12-25T19:36:57.175Z,10.60
2022-12-25T19:39:46.680Z,10.60
2022-12-25T19:42:32.547Z,10.60
2022-12-25T19:45:18.556Z,10.60
2022-12-25T19:48:04.639Z,10.60
2022-12-25T19:50:50.656Z,10.60
2022-12-25T19:53:36.377Z,10.70
2022-12-25T19:56:23.381Z,10.70
2022-12-25T19:59:10.580Z,10.70
2022-12-25T20:01:56.165Z,10.70
2022-12-25T20:04:42.000Z,10.70
2022-12-25T20:07:27.786Z,10.60
2022-12-25T20:10:13.301Z,10.60
2022-12-25T20:12:59.079Z,10.60
2022-12-25T20:15:45.108Z,10.60
2022-12-25T20:18:30.544Z,10.60
2022-12-25T20:21:19.373Z,10.60
2022-12-25T20:24:06.627Z,10.60
2022-12-25T20:26:58.575Z,10.60
2022-12-25T20:29:45.204Z,10.60
2022-12-25T20:32:31.230Z,10.60
2022-12-25T20:35:17.149Z,10.60
2022-12-25T20:38:03.300Z,10.60
2022-12-25T20:41:25.118Z,10.60
2022-12-25T20:43:54.931Z,10.60
2022-12-25T20:46:41.314Z,10.60
2022-12-25T20:49:32.358Z,10.60
2022-12-25T20:52:18.444Z,10.60
2022-12-25T20:55:04.306Z,10.60
2022-12-25T20:57:49.763Z,10.60
2022-12-25T21:00:39.458Z,10.60
2022-12-25T21:03:25.377Z,10.60
2022-12-25T21:06:11.902Z,10.60
2022-12-25T21:08:57.603Z,10.60
2022-12-25T21:11:42.906Z,10.60
2022-12-25T21:14:29.747Z,10.60
2022-12-25T21:17:15.321Z,10.60
2022-12-25T21:20:00.891Z,10.60
2022-12-25T21:22:46.597Z,10.60
2022-12-25T21:25:32.217Z,10.60
2022-12-25T21:28:17.909Z,10.60
2022-12-25T21:31:07.650Z,10.60
2022-12-25T21:33:55.268Z,10.60
2022-12-25T21:36:41.607Z,10.60
2022-12-25T21:39:28.672Z,10.60
2022-12-25T21:42:14.218Z,10.60
2022-12-25T21:44:59.902Z,10.60
2022-12-25T21:48:01.313Z,10.60
2022-12-25T21:51:07.405Z,10.60
2022-12-25T21:53:53.262Z,10.60
2022-12-25T21:56:44.602Z,10.60
2022-12-25T21:59:30.809Z,10.60
2022-12-25T22:02:16.479Z,10.60
2022-12-25T22:05:02.072Z,10.60
2022-12-25T22:07:49.839Z,10.60
2022-12-25T22:10:36.834Z,10.60
2022-12-25T22:13:43.673Z,10.60
2022-12-25T22:16:48.010Z,10.60
2022-12-25T22:19:43.653Z,10.60
2022-12-25T22:22:29.917Z,10.60
2022-12-25T22:25:16.388Z,10.60
2022-12-25T22:28:02.315Z,10.60
2022-12-25T22:30:47.678Z,10.60
2022-12-25T22:33:34.405Z,10.60
2022-12-25T22:36:20.999Z,10.60
2022-12-25T22:39:06.842Z,10.60
2022-12-25T22:41:58.172Z,10.60
2022-12-25T22:44:46.111Z,10.50
2022-12-25T22:47:31.834Z,10.50
2022-12-25T22:50:17.357Z,10.50
2022-12-25T22:53:02.846Z,10.50
2022-12-25T22:55:49.719Z,10.50
2022-12-25T22:58:35.574Z,10.50
2022-12-25T23:01:21.398Z,10.50
2022-12-25T23:04:07.721Z,10.50
2022-12-25T23:06:53.432Z,10.50
2022-12-25T23:09:39.093Z,10.50
2022-12-25T23:12:43.313Z,10.50
2022-12-25T23:15:29.011Z,10.60
2022-12-25T23:18:34.728Z,10.50
2022-12-25T23:21:38.932Z,10.50
2022-12-25T23:24:43.810Z,10.50
2022-12-25T23:27:29.212Z,10.50
2022-12-25T23:30:16.808Z,10.50
2022-12-25T23:33:02.534Z,10.50
2022-12-25T23:35:48.787Z,10.50
2022-12-25T23:38:34.391Z,10.50
2022-12-25T23:41:20.293Z,10.50
2022-12-25T23:44:06.189Z,10.50
2022-12-25T23:46:53.645Z,10.50
2022-12-25T23:49:39.495Z,10.50
2022-12-25T23:52:25.350Z,10.50
2022-12-25T23:55:11.186Z,10.50
2022-12-25T23:57:56.611Z,10.50
